Time;durP1;ratioP1;P1;durP2;ratioP2;P2;SDS_P1;SDS_P2;PMS_P1;PMS_P2;Temp;Humidity;BMP_temperature;BMP_pressure;BME280_temperature;BME280_humidity;BME280_pressure;Samples;Min_cycle;Max_cycle;Signal;HPM_P1;HPM_P2
2021/07/02 00:00:28;;;;;;;6.30;5.70;;;;;;;8.45;100.00;93252.09;2084498;28;20024;-87
2021/07/02 00:01:28;;;;;;;7.72;6.10;;;;;;;8.47;100.00;93253.22;2093103;28;20071;-88
2021/07/02 00:02:29;;;;;;;6.75;5.93;;;;;;;8.48;100.00;93259.28;2100928;28;20020;-87
2021/07/02 00:03:30;;;;;;;7.90;6.65;;;;;;;8.47;100.00;93257.75;2107214;28;20040;-88
2021/07/02 00:04:34;;;;;;;9.38;6.20;;;;;;;8.48;100.00;93261.97;2092997;28;20083;-87
2021/07/02 00:05:35;;;;;;;6.47;5.72;;;;;;;8.44;100.00;93259.31;2099278;28;20038;-87
2021/07/02 00:06:35;;;;;;;6.35;5.75;;;;;;;8.49;100.00;93258.13;2100759;28;20492;-87
2021/07/02 00:07:36;;;;;;;6.57;5.90;;;;;;;8.49;100.00;93256.22;2100524;28;20039;-87
2021/07/02 00:08:37;;;;;;;6.68;6.00;;;;;;;8.48;100.00;93257.38;2101364;28;20036;-87
2021/07/02 00:09:37;;;;;;;8.63;6.32;;;;;;;8.47;100.00;93252.44;2096930;28;20036;-87
2021/07/02 00:10:38;;;;;;;6.40;5.80;;;;;;;8.51;100.00;93253.16;2093100;28;20046;-86
2021/07/02 00:11:39;;;;;;;7.70;6.20;;;;;;;8.48;100.00;93257.38;2108328;28;20027;-87
2021/07/02 00:12:40;;;;;;;9.68;6.63;;;;;;;8.43;100.00;93249.84;2107421;28;20023;-87
2021/07/02 00:13:40;;;;;;;7.50;6.72;;;;;;;8.47;100.00;93249.78;2109818;28;20024;-87
2021/07/02 00:14:41;;;;;;;6.53;5.93;;;;;;;8.48;100.00;93246.72;2102007;28;20114;-87
2021/07/02 00:15:42;;;;;;;14.98;6.85;;;;;;;8.46;100.00;93251.69;2109325;28;20023;-88
2021/07/02 00:16:42;;;;;;;7.55;6.70;;;;;;;8.46;100.00;93245.59;2109631;28;20020;-87
2021/07/02 00:17:43;;;;;;;6.35;5.72;;;;;;;8.43;100.00;93241.84;2110505;28;20019;-88
2021/07/02 00:18:44;;;;;;;8.68;5.90;;;;;;;8.45;100.00;93239.53;2100803;28;20399;-89
2021/07/02 00:19:44;;;;;;;8.38;6.25;;;;;;;8.40;100.00;93239.22;2084186;28;20025;-87
2021/07/02 00:20:45;;;;;;;6.90;5.90;;;;;;;8.44;100.00;93245.25;2096710;28;20025;-89
2021/07/02 00:21:46;;;;;;;6.93;6.22;;;;;;;8.39;100.00;93238.47;2101454;28;20023;-86
2021/07/02 00:22:46;;;;;;;7.60;6.10;;;;;;;8.39;100.00;93237.72;2101843;28;20020;-87
2021/07/02 00:23:47;;;;;;;8.43;5.63;;;;;;;8.40;100.00;93239.22;2093369;28;20477;-88
2021/07/02 00:24:49;;;;;;;7.60;6.50;;;;;;;8.34;100.00;93236.22;2101946;28;20536;-89
2021/07/02 00:25:49;;;;;;;7.95;5.78;;;;;;;8.33;100.00;93243.41;2100792;28;20028;-87
2021/07/02 00:26:50;;;;;;;6.45;5.85;;;;;;;8.25;100.00;93238.56;2084898;28;20021;-87
2021/07/02 00:27:51;;;;;;;9.13;6.50;;;;;;;8.25;100.00;93234.03;2101681;28;20604;-87
2021/07/02 00:28:51;;;;;;;7.35;6.32;;;;;;;8.24;100.00;93237.06;2100749;28;20101;-87
2021/07/02 00:29:52;;;;;;;7.07;6.15;;;;;;;8.20;100.00;93234.44;2101136;28;20039;-88
2021/07/02 00:30:53;;;;;;;7.90;5.95;;;;;;;8.19;100.00;93238.25;2100463;28;20027;-89
2021/07/02 00:31:53;;;;;;;8.70;5.90;;;;;;;8.14;100.00;93233.38;2094226;28;20057;-87
2021/07/02 00:32:54;;;;;;;8.70;5.75;;;;;;;8.15;100.00;93237.53;2082931;28;20052;-87
2021/07/02 00:33:55;;;;;;;7.45;5.10;;;;;;;8.18;100.00;93230.69;2094369;28;20359;-87
2021/07/02 00:34:55;;;;;;;7.53;5.60;;;;;;;8.20;100.00;93231.03;2094229;28;20025;-86
2021/07/02 00:35:56;;;;;;;5.85;5.35;;;;;;;8.19;100.00;93227.59;2100364;28;20572;-87
2021/07/02 00:36:57;;;;;;;7.20;5.70;;;;;;;8.17;100.00;93231.84;2105282;28;20524;-87
2021/07/02 00:37:57;;;;;;;7.10;6.40;;;;;;;8.13;100.00;93225.78;2093871;28;20024;-88
2021/07/02 00:38:59;;;;;;;6.93;6.13;;;;;;;8.11;100.00;93231.50;2082439;28;20029;-87
2021/07/02 00:39:59;;;;;;;6.65;5.55;;;;;;;8.13;100.00;93231.13;2097713;28;20025;-88
2021/07/02 00:41:00;;;;;;;9.07;6.32;;;;;;;8.09;100.00;93228.50;2101351;28;20469;-88
2021/07/02 00:42:01;;;;;;;8.30;6.22;;;;;;;8.05;100.00;93230.44;2088883;28;20028;-87
2021/07/02 00:43:02;;;;;;;7.18;5.63;;;;;;;8.11;100.00;93225.41;2096786;28;20070;-87
2021/07/02 00:44:03;;;;;;;6.72;6.13;;;;;;;8.04;100.00;93223.59;2101237;28;20139;-89
2021/07/02 00:45:04;;;;;;;7.25;6.50;;;;;;;8.04;100.00;93223.59;2101017;28;20032;-87
2021/07/02 00:46:05;;;;;;;7.13;6.15;;;;;;;7.97;100.00;93221.00;2081325;28;20128;-88
2021/07/02 00:47:06;;;;;;;9.55;6.03;;;;;;;7.98;100.00;93219.84;2092935;28;20028;-87
2021/07/02 00:48:06;;;;;;;10.18;6.78;;;;;;;8.01;100.00;93229.72;2100825;28;20097;-88
2021/07/02 00:49:09;;;;;;;9.13;6.30;;;;;;;8.01;100.00;93222.47;2101118;28;20037;-86
2021/07/02 00:50:11;;;;;;;7.18;6.40;;;;;;;8.02;100.00;93225.88;2100908;28;20031;-87
2021/07/02 00:51:12;;;;;;;9.63;6.47;;;;;;;7.98;100.00;93214.53;2101206;28;20489;-87
2021/07/02 00:52:14;;;;;;;7.43;6.07;;;;;;;8.03;100.00;93222.06;2092687;28;20029;-87
2021/07/02 00:53:15;;;;;;;7.75;6.50;;;;;;;8.03;100.00;93227.41;2099071;28;20508;-86
2021/07/02 00:54:16;;;;;;;9.15;6.45;;;;;;;7.96;100.00;93220.25;2107745;28;20023;-87
2021/07/02 00:55:17;;;;;;;10.32;6.03;;;;;;;7.95;100.00;93225.97;2108892;28;20067;-87
2021/07/02 00:56:19;;;;;;;8.43;6.18;;;;;;;7.93;100.00;93222.94;2107835;28;20453;-87
2021/07/02 00:57:22;;;;;;;11.00;6.45;;;;;;;7.92;100.00;93218.78;2101410;28;20504;-86
2021/07/02 00:58:24;;;;;;;7.43;6.30;;;;;;;7.95;100.00;93224.06;2101018;28;20051;-87
2021/07/02 00:59:25;;;;;;;10.15;6.70;;;;;;;7.94;100.00;93224.44;2109942;28;20028;-87
2021/07/02 01:00:25;;;;;;;6.50;5.90;;;;;;;7.92;100.00;93230.19;2102261;28;20131;-87
2021/07/02 01:01:26;;;;;;;6.70;6.10;;;;;;;7.92;100.00;93216.88;2101026;28;20038;-87
2021/07/02 01:02:27;;;;;;;8.68;5.97;;;;;;;7.94;100.00;93222.53;2083693;28;20242;-89
2021/07/02 01:03:27;;;;;;;6.45;5.85;;;;;;;7.96;100.00;93222.16;2084523;28;20021;-87
2021/07/02 01:04:29;;;;;;;6.80;5.85;;;;;;;7.99;100.00;93216.03;2084527;28;20025;-88
2021/07/02 01:05:29;;;;;;;8.20;5.70;;;;;;;7.96;100.00;93220.25;2100684;28;20020;-86
2021/07/02 01:06:30;;;;;;;9.13;5.43;;;;;;;7.96;100.00;93217.59;2103801;28;20042;-87
2021/07/02 01:07:32;;;;;;;6.18;5.53;;;;;;;7.95;100.00;93218.75;2095410;28;20036;-87
2021/07/02 01:08:33;;;;;;;6.18;5.50;;;;;;;7.92;100.00;93224.84;2084548;28;20017;-87
2021/07/02 01:09:33;;;;;;;7.03;5.63;;;;;;;7.95;100.00;93218.75;2088873;28;20024;-88
2021/07/02 01:10:34;;;;;;;6.18;5.57;;;;;;;7.89;100.00;93222.97;2101378;28;20032;-87
2021/07/02 01:11:35;;;;;;;6.82;5.05;;;;;;;7.89;100.00;93217.66;2093613;28;20025;-87
2021/07/02 01:12:36;;;;;;;6.00;5.18;;;;;;;7.93;100.00;93222.94;2111376;28;20086;-87
2021/07/02 01:13:37;;;;;;;6.45;5.78;;;;;;;7.96;100.00;93222.91;2109234;28;20023;-88
2021/07/02 01:14:39;;;;;;;6.47;5.88;;;;;;;7.95;100.00;93220.66;2088436;28;20298;-88
2021/07/02 01:15:39;;;;;;;6.25;5.50;;;;;;;7.95;100.00;93218.75;2092497;28;20470;-89
2021/07/02 01:16:40;;;;;;;5.70;5.18;;;;;;;7.95;100.00;93223.31;2109641;28;20138;-88
2021/07/02 01:17:41;;;;;;;7.40;5.70;;;;;;;7.95;100.00;93213.41;2109413;28;20024;-87
2021/07/02 01:18:44;;;;;;;5.75;5.13;;;;;;;7.98;100.00;93217.19;2100906;28;20032;-88
2021/07/02 01:19:50;;;;;;;7.75;5.38;;;;;;;8.01;100.00;93211.84;2100610;28;20024;-87
2021/07/02 01:20:56;;;;;;;5.80;4.88;;;;;;;7.91;100.00;93218.03;2102079;28;20459;-87
2021/07/02 01:21:56;;;;;;;4.78;4.35;;;;;;;7.95;100.00;93221.41;2096863;28;20048;-88
2021/07/02 01:22:57;;;;;;;6.05;5.45;;;;;;;7.93;100.00;93220.28;2086253;28;20028;-88
2021/07/02 01:23:58;;;;;;;5.07;4.57;;;;;;;7.95;100.00;93218.75;2092528;28;20040;-87
2021/07/02 01:24:59;;;;;;;6.72;5.70;;;;;;;7.93;100.00;93217.63;2091904;28;20385;-86
2021/07/02 01:26:00;;;;;;;6.20;5.60;;;;;;;7.89;100.00;93215.00;2100638;28;20058;-87
2021/07/02 01:27:01;;;;;;;5.95;5.35;;;;;;;7.91;100.00;93215.38;2097374;28;20030;-87
2021/07/02 01:28:03;;;;;;;5.63;5.13;;;;;;;7.88;100.00;93210.06;2100826;28;20494;-87
2021/07/02 01:29:04;;;;;;;7.53;5.28;;;;;;;7.91;100.00;93212.69;2099903;28;20031;-89
2021/07/02 01:30:08;;;;;;;5.40;4.80;;;;;;;7.93;100.00;93212.28;2105006;28;20492;-87
2021/07/02 01:31:08;;;;;;;6.00;4.90;;;;;;;7.95;100.00;93215.34;2100084;28;20028;-87
2021/07/02 01:32:10;;;;;;;5.68;5.07;;;;;;;7.93;100.00;93209.63;2092494;28;20020;-88
2021/07/02 01:33:12;;;;;;;8.38;5.38;;;;;;;7.97;100.00;93210.34;2101166;27;20412;-88
2021/07/02 01:34:12;;;;;;;8.23;5.07;;;;;;;7.93;100.00;93212.28;2101748;28;20025;-87
2021/07/02 01:35:13;;;;;;;8.23;5.25;;;;;;;7.88;100.00;93208.16;2092129;28;20048;-88
2021/07/02 01:36:25;;;;;;;5.53;5.03;;;;;;;7.95;100.00;93210.75;2095805;28;20469;-87
2021/07/02 01:37:26;;;;;;;6.78;5.20;;;;;;;7.92;100.00;93216.13;2084764;28;20568;-87
2021/07/02 01:38:26;;;;;;;6.22;5.63;;;;;;;7.92;100.00;93216.88;2096119;28;20025;-88
2021/07/02 01:39:27;;;;;;;6.35;4.90;;;;;;;7.85;100.00;93216.94;2103974;28;20628;-87
2021/07/02 01:40:30;;;;;;;5.65;5.13;;;;;;;7.93;100.00;93213.03;2101869;28;20036;-87
2021/07/02 01:42:13;;;;;;;6.07;5.47;;;;;;;7.94;100.00;93216.47;2103566;28;20451;-88
2021/07/02 01:43:13;;;;;;;7.00;4.82;;;;;;;7.91;100.00;93212.69;2087539;28;20116;-87
2021/07/02 01:44:14;;;;;;;6.18;5.25;;;;;;;7.90;100.00;93213.88;2095487;28;20062;-87
2021/07/02 01:45:15;;;;;;;9.32;5.38;;;;;;;7.83;100.00;93217.34;2109325;28;20480;-88
2021/07/02 01:46:16;;;;;;;6.45;5.22;;;;;;;7.84;100.00;93215.41;2109590;28;20023;-87
2021/07/02 01:47:17;;;;;;;6.07;5.45;;;;;;;7.83;100.00;93224.56;2100231;28;20055;-87
2021/07/02 01:48:18;;;;;;;6.10;5.50;;;;;;;7.82;100.00;93220.41;2084490;28;20025;-88
2021/07/02 01:49:18;;;;;;;6.07;5.50;;;;;;;7.79;100.00;93215.84;2092546;28;20111;-87
2021/07/02 01:50:19;;;;;;;5.95;5.35;;;;;;;7.76;100.00;93220.06;2100678;28;20110;-88
2021/07/02 01:51:20;;;;;;;9.90;5.78;;;;;;;7.75;100.00;93220.47;2101250;28;20111;-87
2021/07/02 01:52:20;;;;;;;6.85;5.13;;;;;;;7.72;100.00;93223.91;2092933;28;20028;-88
2021/07/02 01:53:21;;;;;;;6.03;5.10;;;;;;;7.76;100.00;93227.28;2080211;28;20060;-89
2021/07/02 01:54:22;;;;;;;7.63;5.60;;;;;;;7.73;100.00;93218.19;2076312;28;20029;-88
2021/07/02 01:55:23;;;;;;;8.40;5.82;;;;;;;7.72;100.00;93218.56;2096151;28;20067;-88
2021/07/02 01:56:24;;;;;;;9.23;5.95;;;;;;;7.72;100.00;93221.25;2096721;28;20024;-87
2021/07/02 01:57:28;;;;;;;6.65;5.63;;;;;;;7.76;100.00;93217.38;2092230;28;20531;-87
2021/07/02 01:58:29;;;;;;;6.22;5.55;;;;;;;7.73;100.00;93220.88;2100567;28;20117;-87
2021/07/02 01:59:29;;;;;;;6.50;5.15;;;;;;;7.77;100.00;93226.13;2085664;28;20021;-89
2021/07/02 02:00:30;;;;;;;6.55;5.65;;;;;;;7.69;100.00;93214.81;2094391;28;20457;-88
2021/07/02 02:01:31;;;;;;;6.90;6.18;;;;;;;7.75;100.00;93217.78;2092417;28;20107;-88
2021/07/02 02:02:32;;;;;;;7.50;5.72;;;;;;;7.79;100.00;93218.53;2083496;28;20028;-87
2021/07/02 02:03:33;;;;;;;6.95;5.70;;;;;;;7.74;100.00;93217.03;2083749;28;20021;-87
2021/07/02 02:06:03;;;;;;;;;;;;;;;7.77;100.00;93215.47;2139790;27;20169;-85
2021/07/02 02:07:04;;;;;;;5.93;5.32;;;;;;;7.80;100.00;93209.38;2127755;27;20372;-87
2021/07/02 02:08:05;;;;;;;5.85;5.32;;;;;;;7.82;100.00;93215.81;2121531;28;20030;-87
2021/07/02 02:09:06;;;;;;;6.88;5.88;;;;;;;7.85;100.00;93216.19;2121986;28;20031;-88
2021/07/02 02:10:08;;;;;;;6.43;5.70;;;;;;;7.80;100.00;93220.03;2126802;27;20023;-87
2021/07/02 02:11:08;;;;;;;6.45;5.65;;;;;;;7.81;100.00;93209.00;2121924;27;20114;-86
2021/07/02 02:12:09;;;;;;;11.35;6.00;;;;;;;7.81;100.00;93219.66;2113368;28;20024;-86
2021/07/02 02:13:10;;;;;;;7.35;5.85;;;;;;;7.84;100.00;93212.75;2109104;27;20024;-87
2021/07/02 02:14:11;;;;;;;7.00;6.22;;;;;;;7.89;100.00;93217.66;2120779;28;20038;-86
2021/07/02 02:15:12;;;;;;;7.65;6.22;;;;;;;7.88;100.00;93216.16;2112871;28;20031;-85
2021/07/02 02:16:12;;;;;;;8.38;6.22;;;;;;;7.90;100.00;93213.88;2113293;28;20031;-86
2021/07/02 02:17:13;;;;;;;7.50;6.20;;;;;;;7.91;100.00;93211.94;2113391;28;20383;-86
2021/07/02 02:18:14;;;;;;;6.90;6.20;;;;;;;7.92;100.00;93216.88;2111558;27;20360;-87
2021/07/02 02:19:15;;;;;;;6.45;5.78;;;;;;;7.92;100.00;93216.13;2109706;28;20097;-87
2021/07/02 02:20:17;;;;;;;7.25;6.07;;;;;;;7.92;100.00;93214.22;2112991;28;20054;-87
2021/07/02 02:21:18;;;;;;;6.50;5.38;;;;;;;7.93;100.00;93210.38;2117216;27;20135;-86
2021/07/02 02:22:18;;;;;;;10.15;6.50;;;;;;;7.91;100.00;93209.28;2106266;28;20520;-86
2021/07/02 02:23:19;;;;;;;5.97;5.40;;;;;;;7.89;100.00;93211.56;2100670;28;20017;-86
2021/07/02 02:24:20;;;;;;;6.82;5.75;;;;;;;7.89;100.00;93211.56;2104602;28;20898;-87
2021/07/02 02:25:21;;;;;;;6.38;5.78;;;;;;;7.92;100.00;93216.88;2104651;28;20032;-88
2021/07/02 02:26:21;;;;;;;8.85;6.45;;;;;;;7.89;100.00;93209.66;2113098;28;20020;-87
2021/07/02 02:27:22;;;;;;;5.97;5.40;;;;;;;7.88;100.00;93213.47;2104599;28;20393;-85
2021/07/02 02:28:23;;;;;;;7.50;5.97;;;;;;;7.90;100.00;93218.41;2109105;28;20437;-87
2021/07/02 02:29:24;;;;;;;5.97;5.38;;;;;;;7.86;100.00;93213.13;2108441;28;20062;-85
2021/07/02 02:30:25;;;;;;;7.32;5.93;;;;;;;7.87;100.00;93214.66;2104523;28;20078;-87
2021/07/02 02:31:26;;;;;;;7.05;5.68;;;;;;;7.82;100.00;93220.41;2087901;28;20500;-86
2021/07/02 02:32:26;;;;;;;6.13;5.07;;;;;;;7.81;100.00;93210.88;2087765;28;20022;-86
2021/07/02 02:33:27;;;;;;;6.15;5.13;;;;;;;7.81;100.00;93213.53;2098003;28;20028;-86
2021/07/02 02:34:28;;;;;;;8.57;5.43;;;;;;;7.75;100.00;93218.53;2113172;28;20028;-87
2021/07/02 02:35:29;;;;;;;6.05;5.20;;;;;;;7.72;100.00;93221.25;2107715;28;20379;-86
2021/07/02 02:36:30;;;;;;;6.72;5.85;;;;;;;7.74;100.00;93213.63;2109325;28;20499;-86
2021/07/02 02:37:31;;;;;;;6.18;5.45;;;;;;;7.66;100.00;93212.94;2107360;28;20024;-85
2021/07/02 02:38:32;;;;;;;6.47;5.80;;;;;;;7.69;100.00;93217.47;2121526;28;20031;-88
2021/07/02 02:39:32;;;;;;;6.70;5.15;;;;;;;7.66;100.00;93212.19;2098633;28;20021;-85
2021/07/02 02:40:33;;;;;;;7.18;5.82;;;;;;;7.68;100.00;93217.84;2096358;28;20040;-87
2021/07/02 02:41:34;;;;;;;8.82;5.70;;;;;;;7.65;100.00;93216.00;2104540;28;20031;-88
2021/07/02 02:42:35;;;;;;;6.47;5.88;;;;;;;7.62;100.00;93214.13;2104889;28;20032;-85
2021/07/02 02:43:39;;;;;;;6.05;5.45;;;;;;;7.64;100.00;93207.25;2095829;28;20481;-87
2021/07/02 02:44:39;;;;;;;8.55;6.80;;;;;;;7.58;100.00;93214.91;2088725;28;20113;-87
2021/07/02 02:45:40;;;;;;;6.70;5.53;;;;;;;7.60;100.00;93213.78;2096069;28;20033;-87
2021/07/02 02:46:41;;;;;;;8.20;5.55;;;;;;;7.60;100.00;93214.53;2104546;28;20190;-88
2021/07/02 02:47:41;;;;;;;5.65;5.07;;;;;;;7.61;100.00;93216.03;2104594;28;20560;-85
2021/07/02 02:48:42;;;;;;;7.35;5.57;;;;;;;7.56;100.00;93214.53;2104500;28;20107;-87
2021/07/02 02:49:43;;;;;;;6.28;5.47;;;;;;;7.50;100.00;93215.34;2111778;28;20024;-85
2021/07/02 02:50:44;;;;;;;5.78;5.13;;;;;;;7.43;100.00;93218.84;2104395;28;20024;-86
2021/07/02 02:51:44;;;;;;;7.43;5.72;;;;;;;7.45;100.00;93216.53;2104568;28;20047;-86
2021/07/02 02:52:45;;;;;;;7.75;5.63;;;;;;;7.47;100.00;93224.13;2112920;28;20451;-87
2021/07/02 02:53:46;;;;;;;5.68;5.03;;;;;;;7.47;100.00;93218.81;2104631;28;20052;-86
2021/07/02 02:54:46;;;;;;;6.32;5.20;;;;;;;7.42;100.00;93224.53;2105177;28;20070;-86
2021/07/02 02:55:47;;;;;;;8.25;5.53;;;;;;;7.41;100.00;93225.69;2111906;28;20388;-86
2021/07/02 02:58:07;;;;;;;6.90;4.82;;;;;;;7.32;100.00;93216.25;2101129;28;20466;-86
2021/07/02 02:59:08;;;;;;;5.85;5.25;;;;;;;7.29;100.00;93214.41;2096111;28;20098;-87
2021/07/02 03:00:11;;;;;;;6.30;5.53;;;;;;;7.34;100.00;93213.22;2100763;28;20032;-87
2021/07/02 03:01:12;;;;;;;6.70;5.35;;;;;;;7.34;100.00;93220.44;2110450;28;20620;-87
2021/07/02 03:02:12;;;;;;;7.68;6.18;;;;;;;7.31;100.00;93216.66;2107476;28;20179;-86
2021/07/02 03:03:13;;;;;;;5.82;5.20;;;;;;;7.29;100.00;93218.97;2113648;28;20057;-87
2021/07/02 03:04:14;;;;;;;10.00;5.65;;;;;;;7.25;100.00;93218.22;2107458;28;20020;-86
2021/07/02 03:05:15;;;;;;;5.93;5.20;;;;;;;7.27;100.00;93215.91;2104251;28;20447;-86
2021/07/02 03:06:15;;;;;;;6.88;5.43;;;;;;;7.28;100.00;93215.53;2104352;28;20028;-86
2021/07/02 03:07:16;;;;;;;8.30;5.97;;;;;;;7.31;100.00;93214.00;2105693;28;20068;-87
2021/07/02 03:08:17;;;;;;;6.10;5.50;;;;;;;7.30;100.00;93217.81;2104037;28;20101;-86
2021/07/02 03:09:18;;;;;;;7.28;5.43;;;;;;;7.28;100.00;93220.84;2112922;28;20030;-87
2021/07/02 03:10:19;;;;;;;9.70;5.95;;;;;;;7.21;100.00;93220.16;2104305;28;20040;-86
2021/07/02 03:11:21;;;;;;;7.28;5.40;;;;;;;7.20;100.00;93221.28;2108352;28;20476;-87
2021/07/02 03:12:22;;;;;;;8.73;6.05;;;;;;;7.21;100.00;93212.19;2104712;28;20051;-87
2021/07/02 03:13:23;;;;;;;7.25;5.38;;;;;;;7.20;100.00;93219.41;2108441;28;20412;-86
2021/07/02 03:14:24;;;;;;;5.88;5.28;;;;;;;7.19;100.00;93217.13;2104373;28;20081;-87
2021/07/02 03:15:25;;;;;;;6.75;5.68;;;;;;;7.23;100.00;93221.25;2104763;28;20077;-86
2021/07/02 03:16:26;;;;;;;12.38;5.57;;;;;;;7.24;100.00;93217.47;2101130;28;20107;-86
2021/07/02 03:17:27;;;;;;;6.80;5.50;;;;;;;7.24;100.00;93222.00;2098818;28;20366;-87
2021/07/02 03:18:27;;;;;;;5.45;4.90;;;;;;;7.26;100.00;93217.81;2102113;28;20028;-86
2021/07/02 03:19:28;;;;;;;5.32;4.82;;;;;;;7.27;100.00;93219.34;2095368;28;20031;-87
2021/07/02 03:20:29;;;;;;;5.70;5.15;;;;;;;7.28;100.00;93222.75;2093189;28;20033;-86
2021/07/02 03:21:30;;;;;;;6.53;5.68;;;;;;;7.16;100.00;93225.91;2098755;28;20020;-86
2021/07/02 03:22:30;;;;;;;5.45;4.93;;;;;;;7.20;100.00;93222.06;2090431;28;20461;-86
2021/07/02 03:23:31;;;;;;;7.78;5.68;;;;;;;7.13;100.00;93227.41;2082050;28;20029;-86
2021/07/02 03:24:32;;;;;;;7.10;4.85;;;;;;;7.18;100.00;93227.00;2090488;28;20052;-87
2021/07/02 03:25:32;;;;;;;7.28;5.10;;;;;;;7.16;100.00;93231.97;2081871;28;20112;-86
2021/07/02 03:26:33;;;;;;;6.18;4.80;;;;;;;7.13;100.00;93227.41;2090245;28;20037;-86
2021/07/02 03:27:34;;;;;;;8.32;5.40;;;;;;;7.11;100.00;93226.28;2101773;28;20516;-87
2021/07/02 03:28:35;;;;;;;7.05;5.53;;;;;;;7.08;100.00;93230.50;2115417;28;20491;-86
2021/07/02 03:29:36;;;;;;;6.72;5.40;;;;;;;7.06;100.00;93233.53;2115721;28;20108;-87
2021/07/02 03:30:37;;;;;;;5.45;4.80;;;;;;;7.07;100.00;93232.41;2106819;28;20388;-85
2021/07/02 03:31:38;;;;;;;6.55;5.88;;;;;;;7.06;100.00;93227.44;2098570;28;20026;-85
2021/07/02 03:32:39;;;;;;;7.43;5.65;;;;;;;7.00;100.00;93235.09;2100308;28;20640;-86
2021/07/02 03:33:40;;;;;;;6.90;5.63;;;;;;;7.02;100.00;93227.50;2103709;28;20512;-87
2021/07/02 03:34:44;;;;;;;6.07;5.32;;;;;;;7.06;100.00;93232.78;2100153;28;20024;-86
2021/07/02 03:35:45;;;;;;;8.70;5.93;;;;;;;7.05;100.00;93232.03;2106159;28;20701;-87
2021/07/02 03:36:46;;;;;;;6.85;5.80;;;;;;;7.09;100.00;93226.69;2099271;28;20137;-86
2021/07/02 03:37:47;;;;;;;9.40;5.70;;;;;;;7.15;100.00;93229.69;2106288;28;20035;-86
2021/07/02 03:38:48;;;;;;;13.32;5.43;;;;;;;7.16;100.00;93234.63;2106831;28;20031;-86
2021/07/02 03:39:48;;;;;;;8.50;5.25;;;;;;;7.22;100.00;93226.97;2090391;28;20029;-86
2021/07/02 03:40:49;;;;;;;5.43;4.93;;;;;;;7.15;100.00;93227.03;2098621;28;20095;-85
2021/07/02 03:41:50;;;;;;;6.60;4.57;;;;;;;7.17;100.00;93236.13;2106313;28;20594;-86
2021/07/02 03:42:50;;;;;;;5.43;4.50;;;;;;;7.16;100.00;93225.91;2098735;28;20056;-86
2021/07/02 03:43:51;;;;;;;8.82;5.10;;;;;;;7.20;100.00;93235.34;2106573;28;20134;-86
2021/07/02 03:44:52;;;;;;;5.05;3.80;;;;;;;7.14;100.00;93222.84;2106719;28;20434;-86
2021/07/02 03:45:52;;;;;;;9.82;4.22;;;;;;;7.14;100.00;93226.25;2098458;28;20112;-85
2021/07/02 03:46:53;;;;;;;4.90;4.38;;;;;;;7.14;100.00;93236.16;2090279;28;20121;-88
2021/07/02 03:47:54;;;;;;;3.88;3.47;;;;;;;7.16;100.00;93236.53;2090685;28;20124;-88
2021/07/02 03:48:54;;;;;;;3.90;3.50;;;;;;;7.10;100.00;93227.44;2098499;28;20021;-86
2021/07/02 03:49:55;;;;;;;4.28;3.78;;;;;;;7.16;100.00;93237.28;2114770;28;20028;-87
2021/07/02 03:50:56;;;;;;;4.53;3.38;;;;;;;7.07;100.00;93229.75;2106864;28;20074;-87
2021/07/02 03:51:57;;;;;;;4.03;3.60;;;;;;;7.06;100.00;93227.44;2098752;28;20461;-87
2021/07/02 03:52:57;;;;;;;3.67;3.33;;;;;;;7.05;100.00;93229.34;2098432;28;20032;-87
2021/07/02 03:53:58;;;;;;;3.90;3.60;;;;;;;7.04;100.00;93235.81;2105933;28;20027;-86
2021/07/02 03:54:59;;;;;;;4.47;3.75;;;;;;;7.07;100.00;93231.66;2100472;28;20029;-85
2021/07/02 03:56:01;;;;;;;4.32;3.92;;;;;;;6.98;100.00;93239.28;2106909;28;20028;-86
2021/07/02 03:57:12;;;;;;;4.75;4.35;;;;;;;7.05;100.00;93236.59;2098818;28;20039;-87
2021/07/02 03:58:13;;;;;;;3.85;3.55;;;;;;;7.06;100.00;93236.19;2109667;27;20032;-86
2021/07/02 03:59:13;;;;;;;4.13;3.70;;;;;;;7.02;100.00;93237.34;2106938;28;20055;-87
2021/07/02 04:00:14;;;;;;;4.40;4.00;;;;;;;7.04;100.00;93243.81;2098457;28;20054;-86
2021/07/02 04:01:15;;;;;;;4.00;3.70;;;;;;;7.03;100.00;93246.84;2098471;28;20078;-86
2021/07/02 04:02:16;;;;;;;4.65;4.25;;;;;;;7.00;100.00;93242.31;2095165;28;20025;-86
2021/07/02 04:03:17;;;;;;;6.03;3.88;;;;;;;7.04;100.00;93233.16;2101816;28;20067;-87
2021/07/02 04:04:18;;;;;;;4.38;3.97;;;;;;;7.00;100.00;93234.34;2103135;28;20028;-85
2021/07/02 04:05:18;;;;;;;7.15;4.28;;;;;;;7.03;100.00;93241.53;2100546;28;20113;-87
2021/07/02 04:06:19;;;;;;;4.95;4.10;;;;;;;6.99;100.00;93243.47;2110688;28;20039;-86
2021/07/02 04:07:21;;;;;;;5.30;4.15;;;;;;;6.97;100.00;93235.88;2091634;28;20033;-85
2021/07/02 04:08:22;;;;;;;5.05;3.95;;;;;;;6.96;100.00;93239.66;2089954;28;20036;-87
2021/07/02 04:09:23;;;;;;;4.20;3.83;;;;;;;6.99;100.00;93235.50;2098726;28;20070;-86
2021/07/02 04:10:24;;;;;;;4.72;4.30;;;;;;;7.00;100.00;93242.31;2102388;28;20024;-87
2021/07/02 04:11:24;;;;;;;5.10;4.60;;;;;;;6.96;100.00;93236.25;2098358;28;20042;-87
2021/07/02 04:12:25;;;;;;;4.93;4.43;;;;;;;7.03;100.00;93244.19;2102879;28;20028;-86
2021/07/02 04:13:26;;;;;;;6.03;4.25;;;;;;;7.03;100.00;93238.88;2098067;28;20108;-86
2021/07/02 04:14:30;;;;;;;4.55;4.15;;;;;;;7.07;100.00;93245.69;2099847;28;20047;-86
2021/07/02 04:15:31;;;;;;;6.82;4.47;;;;;;;7.11;100.00;93242.97;2117068;27;20037;-87
2021/07/02 04:16:32;;;;;;;4.90;4.50;;;;;;;7.11;100.00;93242.97;2109421;28;20472;-86
2021/07/02 04:17:33;;;;;;;5.90;4.80;;;;;;;7.15;100.00;93240.31;2090164;28;20055;-86
2021/07/02 04:18:34;;;;;;;7.47;4.75;;;;;;;7.19;100.00;93238.38;2098172;28;20504;-87
2021/07/02 04:19:36;;;;;;;5.60;4.85;;;;;;;7.27;100.00;93245.16;2090127;28;20021;-86
2021/07/02 04:20:38;;;;;;;5.28;4.68;;;;;;;7.27;100.00;93242.50;2098131;28;20102;-87
2021/07/02 04:21:38;;;;;;;8.43;5.47;;;;;;;7.28;100.00;93242.09;2098432;28;20028;-86
2021/07/02 04:22:39;;;;;;;4.55;4.13;;;;;;;7.36;100.00;93250.78;2113192;28;20080;-87
2021/07/02 04:23:40;;;;;;;5.20;4.70;;;;;;;7.35;100.00;93243.22;2115094;28;20024;-86
2021/07/02 04:24:41;;;;;;;6.80;4.70;;;;;;;7.40;100.00;93240.88;2106490;28;20024;-86
2021/07/02 04:25:41;;;;;;;5.57;5.07;;;;;;;7.45;100.00;93243.13;2097998;28;20024;-86
2021/07/02 04:26:42;;;;;;;6.53;5.25;;;;;;;7.51;100.00;93235.50;2106618;28;20028;-86
2021/07/02 04:27:43;;;;;;;5.10;4.63;;;;;;;7.53;100.00;93243.84;2099148;28;20024;-86
2021/07/02 04:28:44;;;;;;;6.22;5.63;;;;;;;7.55;100.00;93236.97;2104636;28;20439;-87
2021/07/02 04:29:45;;;;;;;6.25;5.10;;;;;;;7.64;100.00;93244.50;2099112;28;20119;-86
2021/07/02 04:30:46;;;;;;;5.95;5.35;;;;;;;7.68;100.00;93241.78;2098259;28;20020;-85
2021/07/02 04:31:47;;;;;;;7.13;5.47;;;;;;;7.70;100.00;93244.84;2090039;28;20032;-86
2021/07/02 04:32:47;;;;;;;5.82;5.22;;;;;;;7.75;100.00;93239.84;2097194;28;20036;-86
2021/07/02 04:33:48;;;;;;;5.57;5.00;;;;;;;7.76;100.00;93235.25;2090353;28;20025;-87
2021/07/02 04:34:49;;;;;;;5.85;5.25;;;;;;;7.83;100.00;93237.88;2097682;28;20025;-87
2021/07/02 04:35:49;;;;;;;5.47;4.97;;;;;;;7.83;100.00;93240.53;2106392;28;20048;-87
2021/07/02 04:36:50;;;;;;;5.63;5.10;;;;;;;7.83;100.00;93248.50;2098337;28;20025;-86
2021/07/02 04:37:51;;;;;;;5.88;5.35;;;;;;;7.87;100.00;93241.25;2106283;28;20048;-87
2021/07/02 04:38:53;;;;;;;5.50;5.00;;;;;;;7.90;100.00;93245.00;2098149;28;20047;-86
2021/07/02 04:39:54;;;;;;;5.47;4.88;;;;;;;7.84;100.00;93247.34;2089985;28;20041;-87
2021/07/02 04:40:55;;;;;;;6.03;5.40;;;;;;;7.89;100.00;93249.59;2098463;28;20028;-86
2021/07/02 04:41:55;;;;;;;5.20;4.70;;;;;;;7.95;100.00;93242.69;2114910;28;20027;-86
2021/07/02 04:42:56;;;;;;;5.25;4.80;;;;;;;7.99;100.00;93242.63;2114346;28;20034;-87
2021/07/02 04:43:57;;;;;;;5.20;4.70;;;;;;;8.05;100.00;93247.16;2089798;28;20447;-87
2021/07/02 04:44:57;;;;;;;5.28;4.60;;;;;;;8.07;100.00;93239.50;2089630;28;20028;-88
2021/07/02 04:45:58;;;;;;;6.13;4.88;;;;;;;8.08;100.00;93237.63;2098143;28;20062;-86
2021/07/02 04:46:59;;;;;;;6.03;5.07;;;;;;;8.18;100.00;93236.75;2081605;28;20021;-87
2021/07/02 04:47:59;;;;;;;6.25;4.75;;;;;;;8.26;100.00;93237.44;2089927;28;20028;-86
2021/07/02 04:49:00;;;;;;;6.85;5.55;;;;;;;8.25;100.00;93234.03;2106481;28;20050;-86
2021/07/02 04:50:01;;;;;;;6.20;5.60;;;;;;;8.27;100.00;93242.34;2106575;28;20507;-88
2021/07/02 04:51:02;;;;;;;6.03;5.45;;;;;;;8.39;100.00;93243.78;2098399;28;20111;-86